Time;durP1;ratioP1;P1;durP2;ratioP2;P2;SDS_P1;SDS_P2;PMS_P1;PMS_P2;Temp;Humidity;BMP_temperature;BMP_pressure;BME280_temperature;BME280_humidity;BME280_pressure;Samples;Min_cycle;Max_cycle;Signal;HPM_P1;HPM_P2
2021/11/27 00:02:05;;;;;;;18.50;12.30;;;3.50;99.90;;;3.60;67.95;98710.06;5035365;28;20212;-73
2021/11/27 00:04:34;;;;;;;19.23;11.13;;;3.50;99.90;;;3.60;67.08;98711.91;5034596;28;20216;-73
2021/11/27 00:07:05;;;;;;;18.40;11.63;;;3.60;99.90;;;3.61;67.09;98709.03;5017774;28;20208;-72
2021/11/27 00:09:34;;;;;;;16.25;11.35;;;3.50;99.90;;;3.51;66.71;98708.66;5034674;28;20235;-72
2021/11/27 00:12:03;;;;;;;12.90;10.68;;;3.50;99.90;;;3.45;67.13;98704.13;5035688;28;20177;-71
2021/11/27 00:14:43;;;;;;;19.05;10.82;;;3.50;99.90;;;3.30;67.18;98700.88;5033841;28;20300;-71
2021/11/27 00:17:11;;;;;;;14.27;10.20;;;3.40;99.90;;;3.25;67.83;98700.69;5002341;28;20197;-72
2021/11/27 00:19:40;;;;;;;15.40;11.32;;;3.40;99.90;;;3.42;67.22;98699.22;5034085;28;20193;-72
2021/11/27 00:22:11;;;;;;;17.67;10.38;;;3.40;99.90;;;3.18;67.70;98699.88;5037188;28;20599;-75
2021/11/27 00:24:39;;;;;;;16.58;10.60;;;3.30;99.90;;;3.20;68.12;98695.97;5034649;28;20873;-73
2021/11/27 00:27:08;;;;;;;12.63;10.07;;;3.30;99.90;;;3.12;68.04;98696.19;5035659;28;20622;-74
2021/11/27 00:29:39;;;;;;;13.52;10.88;;;3.20;99.90;;;3.39;67.15;98697.78;5019563;28;20212;-76
2021/11/27 00:32:12;;;;;;;14.10;10.85;;;3.30;99.90;;;3.25;67.94;98682.78;5034998;28;20672;-73
2021/11/27 00:34:41;;;;;;;17.35;11.13;;;3.30;99.90;;;3.38;67.15;98698.00;5035883;28;20205;-76
2021/11/27 00:37:12;;;;;;;17.85;11.15;;;3.30;99.90;;;3.34;67.36;98691.44;5035878;28;20177;-75
2021/11/27 00:39:41;;;;;;;14.10;10.02;;;3.30;99.90;;;3.22;67.60;98693.91;5035215;28;20248;-72
2021/11/27 00:42:10;;;;;;;15.07;11.07;;;3.30;99.90;;;3.32;67.93;98688.13;5017735;28;20239;-73
2021/11/27 00:44:39;;;;;;;17.80;12.05;;;3.30;99.90;;;3.53;67.79;98692.41;5035573;28;20256;-73
2021/11/27 00:47:10;;;;;;;12.70;9.63;;;3.40;99.90;;;3.48;67.67;98687.69;5035548;28;20235;-74
2021/11/27 00:49:43;;;;;;;15.68;10.38;;;3.40;99.90;;;3.44;67.11;98691.78;5035459;28;20260;-73
2021/11/27 00:52:14;;;;;;;13.07;9.65;;;3.40;99.90;;;3.45;66.97;98682.75;5035064;28;20170;-73
2021/11/27 00:54:43;;;;;;;13.50;10.68;;;3.40;99.90;;;3.44;67.34;98686.44;5034096;28;20304;-73
2021/11/27 00:57:15;;;;;;;19.08;13.48;;;3.40;99.90;;;3.27;67.61;98679.94;5033983;28;20182;-74
2021/11/27 00:59:45;;;;;;;17.27;12.02;;;3.30;99.90;;;3.15;68.10;98676.25;5035344;28;20177;-74
2021/11/27 01:02:14;;;;;;;15.98;11.20;;;3.30;99.90;;;3.20;68.15;98671.91;5033760;28;20189;-74
2021/11/27 01:04:53;;;;;;;16.42;11.15;;;3.20;99.90;;;3.21;68.34;98670.06;5033550;28;20213;-73
2021/11/27 01:07:26;;;;;;;23.10;12.45;;;3.30;99.90;;;3.20;67.99;98673.75;5016992;28;20247;-74
2021/11/27 01:09:55;;;;;;;16.98;11.80;;;3.20;99.90;;;2.96;68.50;98676.06;5033231;28;20205;-74
2021/11/27 01:12:25;;;;;;;19.30;12.50;;;3.10;99.90;;;2.89;68.64;98671.75;5034017;28;20185;-74
2021/11/27 01:14:54;;;;;;;21.55;13.73;;;3.00;99.90;;;2.83;68.95;98667.25;5035216;28;20217;-75
2021/11/27 01:17:22;;;;;;;17.00;12.55;;;3.00;99.90;;;2.78;69.27;98664.38;5016225;28;20185;-71
2021/11/27 01:19:53;;;;;;;17.88;12.18;;;2.90;99.90;;;2.65;69.99;98664.38;5016075;28;20220;-74
2021/11/27 01:22:27;;;;;;;15.82;11.80;;;2.80;99.90;;;2.66;70.20;98669.53;5034153;28;20646;-71
2021/11/27 01:24:55;;;;;;;20.25;12.90;;;2.80;99.90;;;2.67;69.64;98673.81;5034588;28;20209;-71
2021/11/27 01:27:27;;;;;;;18.35;13.00;;;2.80;99.90;;;2.55;70.01;98667.47;5032646;28;20193;-71
2021/11/27 01:29:56;;;;;;;15.45;11.30;;;2.80;99.90;;;2.48;70.70;98669.28;5033690;28;20252;-73
2021/11/27 01:32:25;;;;;;;16.77;12.05;;;2.70;99.90;;;2.55;70.17;98665.59;5017565;28;20185;-72
2021/11/27 01:34:54;;;;;;;17.30;13.02;;;2.70;99.90;;;2.47;70.81;98663.13;5033132;28;20275;-73
2021/11/27 01:37:25;;;;;;;17.70;11.25;;;2.60;99.90;;;2.36;70.60;98657.59;5017222;28;20239;-71
2021/11/27 01:39:54;;;;;;;15.07;10.95;;;2.60;99.90;;;2.44;70.60;98662.72;5017017;28;20186;-72
2021/11/27 01:42:24;;;;;;;17.30;11.40;;;2.60;99.90;;;2.46;70.52;98658.00;5034696;28;20166;-72
2021/11/27 01:44:53;;;;;;;17.33;10.98;;;2.60;99.90;;;2.39;70.34;98659.84;5033200;28;20272;-72
2021/11/27 01:47:24;;;;;;;16.80;10.75;;;2.50;99.90;;;2.31;70.62;98655.53;5032308;28;20189;-71
2021/11/27 01:49:53;;;;;;;19.85;12.00;;;2.50;99.90;;;2.29;70.72;98659.41;5032837;28;20236;-70
2021/11/27 01:52:23;;;;;;;15.05;12.38;;;2.50;99.90;;;2.23;71.28;98649.56;5015592;28;20201;-72
2021/11/27 01:54:53;;;;;;;19.00;10.77;;;2.40;99.90;;;2.19;71.31;98655.28;5015900;28;20225;-71
2021/11/27 01:57:22;;;;;;;21.30;13.07;;;2.40;99.90;;;2.12;71.23;98649.16;5016601;28;20186;-71
2021/11/27 01:59:51;;;;;;;25.27;12.90;;;2.30;99.90;;;2.13;71.73;98647.31;5033796;28;20654;-72
2021/11/27 02:02:20;;;;;;;15.63;10.88;;;2.30;99.90;;;2.07;72.10;98651.59;5017022;28;20555;-72
2021/11/27 02:04:51;;;;;;;18.25;12.50;;;2.20;99.90;;;1.91;72.17;98651.13;5035777;28;20224;-74
2021/11/27 02:07:20;;;;;;;16.42;12.13;;;2.20;99.90;;;2.07;71.89;98643.59;5039885;28;20209;-74
2021/11/27 02:09:49;;;;;;;19.15;12.80;;;2.10;99.90;;;1.96;72.39;98644.19;5039127;28;20216;-72
2021/11/27 02:12:20;;;;;;;16.08;11.75;;;2.10;99.90;;;1.92;72.32;98648.28;5037978;28;20231;-72
2021/11/27 02:14:48;;;;;;;16.25;11.88;;;2.10;99.90;;;1.90;72.16;98638.81;5038458;28;20248;-71
2021/11/27 02:17:39;;;;;;;19.27;12.95;;;2.10;99.90;;;2.01;71.90;98633.72;5040604;28;20165;-73
2021/11/27 02:20:12;;;;;;;17.73;12.30;;;2.10;99.90;;;1.95;72.04;98631.84;5039743;28;20185;-73
2021/11/27 02:22:43;;;;;;;20.63;13.77;;;2.10;99.90;;;1.82;72.50;98626.50;5023193;28;20181;-71
2021/11/27 02:25:17;;;;;;;18.83;12.07;;;2.00;99.90;;;1.81;72.84;98627.50;5022917;28;20174;-71
2021/11/27 02:27:49;;;;;;;16.33;12.10;;;2.00;99.90;;;1.66;72.78;98629.50;5036796;28;20193;-71
2021/11/27 02:30:22;;;;;;;21.17;13.27;;;1.90;99.90;;;1.68;73.47;98630.16;5037699;28;20200;-72
2021/11/27 02:32:55;;;;;;;16.50;13.15;;;1.90;99.90;;;1.54;73.71;98623.97;5035715;28;20285;-72
2021/11/27 02:35:24;;;;;;;18.08;11.55;;;1.80;99.90;;;1.57;73.85;98625.38;5017294;28;20193;-71
2021/11/27 02:37:54;;;;;;;23.00;12.63;;;1.80;99.90;;;1.60;73.42;98622.31;5034004;28;20189;-74
2021/11/27 02:40:24;;;;;;;18.55;12.77;;;1.80;99.90;;;1.74;72.77;98629.34;5017304;28;20197;-71
2021/11/27 02:42:53;;;;;;;18.35;12.00;;;1.80;99.90;;;1.70;73.00;98620.09;5034575;28;20224;-71
2021/11/27 02:45:22;;;;;;;19.60;12.07;;;1.80;99.90;;;1.73;72.86;98617.03;5033873;28;20251;-71
2021/11/27 02:47:51;;;;;;;16.70;13.30;;;1.90;99.90;;;1.55;73.39;98619.44;5034100;28;20243;-71
2021/11/27 02:50:21;;;;;;;20.10;13.02;;;1.80;99.90;;;1.56;73.25;98615.75;5035603;28;20202;-70
2021/11/27 02:52:50;;;;;;;18.55;12.00;;;1.70;99.90;;;1.61;73.48;98624.78;5017303;28;20200;-72
2021/11/27 02:55:21;;;;;;;18.15;12.35;;;1.70;99.90;;;1.48;73.35;98623.91;5016461;28;20339;-72
2021/11/27 02:57:50;;;;;;;15.32;10.45;;;1.70;99.90;;;1.57;73.06;98622.72;5033698;28;20182;-72
2021/11/27 03:00:22;;;;;;;16.45;11.32;;;1.70;99.90;;;1.43;73.80;98626.34;5031942;28;20212;-71
2021/11/27 03:02:52;;;;;;;19.60;12.15;;;1.70;99.90;;;1.51;73.70;98620.84;5032356;28;20189;-73
2021/11/27 03:05:23;;;;;;;18.20;12.95;;;1.70;99.90;;;1.71;72.83;98625.22;5033086;28;20166;-72
2021/11/27 03:07:52;;;;;;;20.00;11.75;;;1.80;99.90;;;1.64;73.04;98619.06;5015920;28;20681;-72
2021/11/27 03:10:23;;;;;;;18.25;12.48;;;1.80;99.90;;;1.71;72.88;98613.75;5033730;28;20209;-73
2021/11/27 03:12:52;;;;;;;17.38;13.07;;;1.80;99.90;;;1.73;72.70;98617.03;5032928;28;20716;-73
2021/11/27 03:15:21;;;;;;;18.83;12.00;;;1.80;99.90;;;1.65;73.11;98614.53;5032686;28;20195;-71
2021/11/27 03:17:51;;;;;;;22.95;12.98;;;1.80;99.90;;;1.66;72.95;98610.84;5032750;28;20194;-72
2021/11/27 03:20:21;;;;;;;23.60;13.98;;;1.80;99.90;;;1.68;72.56;98606.16;5033551;28;20217;-72
2021/11/27 03:22:50;;;;;;;22.17;12.57;;;1.80;99.90;;;1.61;72.68;98600.78;5033019;28;20193;-71
2021/11/27 03:25:20;;;;;;;19.80;12.85;;;1.70;99.90;;;1.49;72.95;98607.75;5034144;28;20198;-70
2021/11/27 03:27:49;;;;;;;17.58;12.63;;;1.70;99.90;;;1.41;73.21;98601.75;5016277;28;20605;-72
2021/11/27 03:30:21;;;;;;;17.80;12.20;;;1.60;99.90;;;1.37;73.57;98605.81;5032369;28;20205;-71
2021/11/27 03:32:55;;;;;;;18.80;14.27;;;1.60;99.90;;;1.35;73.35;98602.56;5032327;28;20737;-71
2021/11/27 03:35:25;;;;;;;20.83;12.20;;;1.60;99.90;;;1.27;73.57;98600.88;5032634;28;20263;-72
2021/11/27 03:37:54;;;;;;;22.35;12.80;;;1.50;99.90;;;1.37;74.00;98598.66;5033310;28;20182;-72
2021/11/27 03:40:29;;;;;;;25.10;13.55;;;1.50;99.90;;;1.33;73.69;98599.25;5032768;28;20568;-71
2021/11/27 03:43:00;;;;;;;20.13;13.45;;;1.50;99.90;;;1.26;73.83;98599.22;5016292;28;20696;-70
2021/11/27 03:45:30;;;;;;;20.30;12.07;;;1.50;99.90;;;1.26;73.78;98597.38;5032874;28;20185;-70
2021/11/27 03:48:07;;;;;;;16.38;12.40;;;1.50;99.90;;;1.15;74.04;98599.81;5032592;28;20208;-72
2021/11/27 03:50:56;;;;;;;18.05;11.30;;;1.40;99.90;;;1.15;74.62;98602.47;5035848;28;20220;-72
2021/11/27 03:53:32;;;;;;;22.05;12.50;;;1.40;99.90;;;1.29;74.01;98598.84;5037075;28;20206;-72
2021/11/27 03:56:08;;;;;;;18.60;12.23;;;1.40;99.90;;;1.24;73.94;98607.44;5035247;28;20189;-73
2021/11/27 03:58:37;;;;;;;17.42;13.38;;;1.40;99.90;;;1.42;73.21;98608.72;5036438;28;20441;-72
2021/11/27 04:01:11;;;;;;;18.65;11.98;;;1.50;99.90;;;1.33;73.85;98615.25;5035647;28;20216;-72
2021/11/27 04:03:44;;;;;;;20.88;12.63;;;1.50;99.90;;;1.30;73.64;98614.63;5036574;28;20570;-71
2021/11/27 04:06:15;;;;;;;17.98;11.90;;;1.50;99.90;;;1.22;73.82;98622.78;5036251;28;20209;-73
2021/11/27 04:08:47;;;;;;;18.08;12.40;;;1.50;99.90;;;1.13;73.93;98615.97;5019350;28;20284;-71
2021/11/27 04:11:18;;;;;;;17.63;12.02;;;1.40;99.90;;;1.14;74.33;98617.63;5038232;28;20205;-71
2021/11/27 04:13:47;;;;;;;15.80;11.93;;;1.40;99.90;;;1.15;73.96;98616.63;5038224;28;20233;-72
2021/11/27 04:16:16;;;;;;;20.13;11.85;;;1.40;99.90;;;1.24;73.92;98617.25;5037417;28;20231;-72
2021/11/27 04:18:45;;;;;;;18.80;11.27;;;1.40;99.90;;;1.24;73.72;98610.09;5035644;28;20196;-72
2021/11/27 04:21:15;;;;;;;15.68;10.65;;;1.40;99.90;;;1.28;73.66;98613.19;5035510;28;20190;-72
2021/11/27 04:23:44;;;;;;;19.58;12.65;;;1.50;99.90;;;1.37;72.98;98613.81;5034940;28;20213;-72
2021/11/27 04:26:22;;;;;;;15.82;12.00;;;1.50;99.90;;;1.41;72.86;98615.06;5035031;28;20198;-71
2021/11/27 04:28:54;;;;;;;15.32;9.25;;;1.50;99.90;;;1.43;73.40;98611.19;5034126;28;20201;-72
2021/11/27 04:31:25;;;;;;;16.77;11.32;;;1.60;99.90;;;1.46;72.57;98616.13;5051875;28;20697;-70
2021/11/27 04:33:56;;;;;;;16.80;11.13;;;1.60;99.90;;;1.68;72.10;98614.16;5018796;28;20308;-72
2021/11/27 04:36:28;;;;;;;15.40;10.88;;;1.70;99.90;;;1.79;71.14;98608.25;5037226;28;20181;-71
2021/11/27 04:38:57;;;;;;;14.70;9.68;;;1.80;99.90;;;1.73;71.14;98614.38;5017233;28;20196;-72
2021/11/27 04:41:28;;;;;;;19.10;10.00;;;1.80;99.90;;;1.83;71.30;98617.47;5034657;28;20201;-71
2021/11/27 04:43:58;;;;;;;25.65;11.98;;;1.80;99.90;;;1.73;71.83;98614.38;5018306;28;20711;-74
2021/11/27 04:46:27;;;;;;;16.13;10.25;;;1.90;99.90;;;1.85;71.37;98628.75;5019440;28;20221;-72
2021/11/27 04:49:00;;;;;;;17.33;10.57;;;1.90;99.90;;;2.00;70.43;98632.06;5036160;28;20546;-72
2021/11/27 04:51:30;;;;;;;15.55;11.38;;;2.00;99.90;;;1.92;70.65;98626.94;5019002;28;20215;-72
2021/11/27 04:53:59;;;;;;;17.55;10.48;;;2.00;99.90;;;2.01;70.67;98624.91;5019049;28;20259;-73
2021/11/27 04:56:29;;;;;;;20.08;11.35;;;2.00;99.90;;;2.09;70.36;98614.03;5035404;28;20201;-73
2021/11/27 04:58:58;;;;;;;19.30;12.02;;;2.10;99.90;;;2.20;70.20;98624.09;5018743;28;20190;-72
2021/11/27 05:01:27;;;;;;;15.52;10.48;;;2.10;99.90;;;2.21;70.07;98619.59;5035157;28;20268;-71
2021/11/27 05:03:58;;;;;;;15.48;11.00;;;2.20;99.90;;;2.31;69.45;98622.69;5035130;28;20221;-70
2021/11/27 05:06:27;;;;;;;22.85;11.77;;;2.30;99.90;;;2.28;69.44;98615.06;5034541;28;20194;-71
2021/11/27 05:08:57;;;;;;;17.17;11.07;;;2.30;99.90;;;2.14;69.50;98612.41;5033442;23;20644;-75
2021/11/27 05:11:27;;;;;;;18.27;11.02;;;2.20;99.90;;;2.25;69.76;98615.50;5018115;28;20651;-77
2021/11/27 05:13:58;;;;;;;16.92;10.65;;;2.20;99.90;;;2.24;69.87;98611.16;5046865;28;20300;-78
2021/11/27 05:16:28;;;;;;;13.35;9.70;;;2.30;99.90;;;2.27;69.86;98618.78;5038857;28;20213;-77
2021/11/27 05:18:59;;;;;;;19.75;11.68;;;2.30;99.90;;;2.31;69.16;98614.69;5038751;28;20207;-77
2021/11/27 05:21:43;;;;;;;22.27;11.23;;;2.30;99.90;;;2.25;69.71;98621.66;5055390;28;20185;-76
2021/11/27 05:24:13;;;;;;;15.30;10.93;;;2.30;99.90;;;2.36;69.05;98620.22;5057236;28;20926;-77
2021/11/27 05:27:05;;;;;;;16.30;10.45;;;2.40;99.90;;;2.46;69.12;98617.97;5039241;28;20550;-76
2021/11/27 05:30:15;;;;;;;12.88;9.18;;;2.40;99.90;;;2.40;69.38;98621.44;5040201;28;20302;-77
2021/11/27 05:33:07;;;;;;;18.92;10.65;;;2.40;99.90;;;2.52;68.87;98619.78;5039764;28;20189;-78
2021/11/27 05:36:00;;;;;;;20.70;11.88;;;2.50;99.90;;;2.45;69.14;98627.00;5057484;28;20227;-76
2021/11/27 05:38:30;;;;;;;16.75;10.65;;;2.50;99.90;;;2.48;69.15;98632.75;5058179;28;20197;-75
2021/11/27 05:41:00;;;;;;;12.52;10.82;;;2.50;99.90;;;2.43;68.61;98635.19;5039163;28;20189;-77
2021/11/27 05:43:31;;;;;;;16.30;12.13;;;2.40;99.90;;;2.28;68.95;98636.41;5044796;28;20209;-76
2021/11/27 05:46:06;;;;;;;16.00;10.80;;;2.40;99.90;;;2.30;69.65;98637.03;5044689;28;20208;-76
2021/11/27 05:48:36;;;;;;;17.73;11.55;;;2.40;99.90;;;2.30;69.76;98639.72;5044673;28;20193;-76
2021/11/27 05:51:18;;;;;;;15.35;11.55;;;2.40;99.90;;;2.19;69.81;98641.13;5057368;28;20201;-76
2021/11/27 05:53:48;;;;;;;15.85;11.73;;;2.30;99.90;;;2.38;69.38;98636.84;5059577;28;20224;-75
2021/11/27 05:56:19;;;;;;;15.77;11.00;;;2.40;99.90;;;2.14;69.58;98632.91;5061194;28;20211;-78
2021/11/27 05:58:48;;;;;;;22.35;13.02;;;2.30;99.90;;;2.19;69.59;98633.94;5059796;28;20226;-77
2021/11/27 06:01:19;;;;;;;20.05;11.15;;;2.30;99.90;;;2.17;69.84;98636.03;5061417;28;20260;-74
2021/11/27 06:03:49;;;;;;;19.35;12.90;;;2.30;99.90;;;2.09;70.14;98633.53;5042424;28;20288;-76
2021/11/27 06:06:18;;;;;;;18.20;12.88;;;2.20;99.90;;;2.25;70.26;98642.16;5037347;28;20262;-78
2021/11/27 06:08:47;;;;;;;17.70;11.77;;;2.30;99.90;;;2.21;70.37;98640.94;5036580;28;20250;-77
2021/11/27 06:11:17;;;;;;;23.98;13.60;;;2.30;99.90;;;2.13;70.44;98636.63;5053634;28;20208;-77
2021/11/27 06:13:46;;;;;;;23.67;14.00;;;2.20;99.90;;;2.17;69.90;98636.03;5055845;28;20208;-77
2021/11/27 06:16:18;;;;;;;28.45;15.85;;;2.20;99.90;;;2.05;70.40;98637.63;5057702;28;20334;-76
2021/11/27 06:18:48;;;;;;;22.05;14.20;;;2.20;99.90;;;2.03;70.58;98634.31;5055887;28;20192;-76
2021/11/27 06:21:20;;;;;;;21.10;16.08;;;2.20;99.90;;;2.03;70.16;98638.88;5055691;28;20654;-78
2021/11/27 06:23:54;;;;;;;18.77;12.65;;;2.10;99.90;;;2.01;70.33;98641.72;5055654;28;20220;-77
2021/11/27 06:26:25;;;;;;;19.33;13.55;;;2.10;99.90;;;1.93;70.47;98639.25;5056293;28;20216;-76
2021/11/27 06:28:55;;;;;;;21.83;13.07;;;2.10;99.90;;;1.99;70.71;98642.94;5058098;28;20619;-75
2021/11/27 06:31:26;;;;;;;25.38;15.30;;;2.10;99.90;;;2.00;70.54;98644.59;5065490;28;20256;-74
2021/11/27 06:33:58;;;;;;;22.23;14.93;;;2.10;99.90;;;2.02;70.61;98654.03;5049240;28;20216;-76
2021/11/27 06:36:35;;;;;;;25.38;15.70;;;2.10;99.90;;;2.09;71.06;98654.88;5066538;28;20168;-77
2021/11/27 06:39:05;;;;;;;20.88;13.63;;;2.10;99.90;;;2.01;70.78;98651.56;5064484;28;20181;-76
2021/11/27 06:41:35;;;;;;;21.35;15.13;;;2.10;99.90;;;2.11;70.39;98652.84;5064733;28;20207;-74
2021/11/27 06:44:23;;;;;;;21.98;14.70;;;2.10;99.90;;;2.11;70.37;98660.84;5064619;28;20215;-75
2021/11/27 06:46:55;;;;;;;23.75;14.90;;;2.10;99.90;;;2.06;70.53;98671.28;5057558;28;20181;-75
2021/11/27 06:49:25;;;;;;;22.35;14.73;;;2.20;99.90;;;2.00;70.98;98677.41;5042132;28;20285;-76
2021/11/27 06:51:55;;;;;;;22.52;14.25;;;2.10;99.90;;;2.21;70.38;98678.28;5060794;28;20193;-75
2021/11/27 06:54:25;;;;;;;20.88;15.13;;;2.20;99.90;;;2.16;70.57;98676.22;5059089;28;20216;-75
2021/11/27 06:56:54;;;;;;;20.23;14.40;;;2.20;99.90;;;2.28;70.15;98684.44;5061921;28;20230;-75
2021/11/27 06:59:26;;;;;;;21.30;14.05;;;2.20;99.90;;;2.29;70.21;98686.09;5043977;28;20189;-76
2021/11/27 07:02:23;;;;;;;24.45;15.32;;;2.30;99.90;;;2.34;70.17;98679.13;5060973;28;20216;-75
2021/11/27 07:05:15;;;;;;;22.25;15.05;;;2.30;99.90;;;2.29;70.25;98686.91;5003013;28;20546;-75
2021/11/27 07:07:51;;;;;;;26.25;15.25;;;2.30;99.90;;;2.48;69.17;98686.13;5038422;28;20645;-76
2021/11/27 07:10:26;;;;;;;24.00;16.70;;;2.40;99.90;;;2.59;68.90;98692.72;5056293;28;20210;-77
2021/11/27 07:13:04;;;;;;;23.83;14.98;;;2.50;99.90;;;2.47;69.47;98692.47;5059774;28;20242;-77
2021/11/27 07:15:34;;;;;;;23.88;16.95;;;2.50;99.90;;;2.50;69.24;98696.63;5055909;28;20188;-76
2021/11/27 07:18:04;;;;;;;28.08;16.50;;;2.50;99.90;;;2.63;68.69;98704.63;5057601;28;20176;-76
2021/11/27 07:20:33;;;;;;;29.48;14.95;;;2.60;99.90;;;2.66;68.53;98704.25;5054056;28;20169;-77
2021/11/27 07:23:02;;;;;;;26.80;16.52;;;2.60;99.90;;;2.48;69.14;98704.81;5054283;28;20211;-76
2021/11/27 07:25:32;;;;;;;29.05;17.60;;;2.50;99.90;;;2.67;68.53;98713.88;5055432;28;20340;-76
2021/11/27 07:28:20;;;;;;;31.05;18.05;;;2.60;99.90;;;2.71;68.22;98703.63;5058747;28;20593;-78
2021/11/27 07:30:49;;;;;;;28.80;18.33;;;2.70;99.90;;;2.79;68.53;98719.44;5040033;28;20656;-78
2021/11/27 07:33:20;;;;;;;29.63;17.33;;;2.70;99.90;;;2.78;68.21;98712.44;5039950;28;20205;-75
2021/11/27 07:35:51;;;;;;;26.13;16.15;;;2.80;99.90;;;2.82;68.04;98711.81;5041849;28;20235;-78
2021/11/27 07:38:20;;;;;;;26.92;17.25;;;2.80;99.90;;;2.92;67.84;98716.75;5039807;28;20185;-76
2021/11/27 07:40:49;;;;;;;32.08;17.90;;;2.80;99.90;;;2.86;67.42;98715.72;5057005;28;20659;-76
2021/11/27 07:43:18;;;;;;;27.80;18.73;;;2.80;99.90;;;2.85;67.56;98708.75;5056950;28;20296;-77
2021/11/27 07:45:58;;;;;;;29.50;17.90;;;2.80;99.90;;;2.97;67.67;98715.09;5057323;28;20211;-77
2021/11/27 07:48:47;;;;;;;35.03;18.45;;;2.90;99.90;;;3.17;67.65;98714.28;5057673;28;20238;-76
2021/11/27 07:51:35;;;;;;;24.85;16.30;;;3.00;99.90;;;3.26;67.05;98710.34;5057294;28;20208;-76
2021/11/27 07:54:04;;;;;;;34.92;19.73;;;3.10;99.90;;;3.40;66.39;98715.47;5040578;28;20220;-76
2021/11/27 07:56:33;;;;;;;28.50;17.92;;;3.20;99.90;;;3.39;66.73;98715.66;5056975;28;20177;-77
2021/11/27 07:59:01;;;;;;;29.70;17.98;;;3.30;99.90;;;3.47;65.99;98718.13;5056886;28;20195;-78
2021/11/27 08:01:32;;;;;;;30.75;20.25;;;3.30;99.90;;;3.46;66.06;98713.81;5057677;28;20265;-76
2021/11/27 08:04:03;;;;;;;24.95;17.00;;;3.30;99.90;;;3.44;65.51;98718.53;5057313;28;20213;-76
2021/11/27 08:06:32;;;;;;;24.80;17.70;;;3.40;99.90;;;3.50;65.61;98725.72;5039338;28;20192;-77
2021/11/27 08:09:01;;;;;;;30.30;17.33;;;3.40;99.90;;;3.64;65.90;98732.69;5057737;28;20199;-78
2021/11/27 08:11:30;;;;;;;34.25;19.70;;;3.50;99.90;;;3.57;65.29;98718.53;5058351;28;20289;-79
2021/11/27 08:14:00;;;;;;;22.70;17.60;;;3.50;99.90;;;3.63;64.94;98720.34;5056896;28;20580;-78
2021/11/27 08:16:29;;;;;;;26.92;18.10;;;3.50;99.90;;;3.75;65.00;98718.66;5056883;28;20586;-78
2021/11/27 08:18:58;;;;;;;29.85;19.08;;;3.60;99.90;;;3.74;64.34;98714.34;5057495;28;20677;-77
2021/11/27 08:21:28;;;;;;;25.95;18.77;;;3.60;99.90;;;3.87;64.43;98718.84;5057710;28;20181;-78
2021/11/27 08:23:58;;;;;;;27.70;18.35;;;3.70;99.90;;;3.70;64.31;98714.97;5057187;28;20228;-77
2021/11/27 08:26:27;;;;;;;32.03;20.15;;;3.70;99.90;;;3.85;64.09;98718.22;5056086;28;20192;-77
2021/11/27 08:28:56;;;;;;;24.80;18.25;;;3.70;99.90;;;3.97;63.93;98718.38;5057401;28;20624;-78
2021/11/27 08:31:25;;;;;;;30.48;18.88;;;3.80;99.90;;;4.12;63.58;98717.06;5057648;28;20778;-76
2021/11/27 08:33:54;;;;;;;25.55;17.88;;;3.90;99.90;;;4.13;63.04;98712.53;5041189;28;20227;-77
2021/11/27 08:36:23;;;;;;;25.48;17.63;;;3.90;99.90;;;4.15;62.79;98716.66;5057371;28;20169;-77
2021/11/27 08:38:54;;;;;;;24.77;16.15;;;4.00;99.90;;;4.10;62.79;98716.47;5041813;28;20185;-78
2021/11/27 08:41:22;;;;;;;30.65;17.67;;;4.00;99.90;;;4.11;62.75;98714.63;5042738;28;20276;-76
2021/11/27 08:43:51;;;;;;;30.70;19.23;;;4.00;99.90;;;4.17;62.41;98722.59;5060439;28;20208;-77
2021/11/27 08:46:25;;;;;;;26.95;17.77;;;4.10;99.90;;;4.18;62.45;98726.09;5062238;28;20185;-76
2021/11/27 08:48:55;;;;;;;26.40;17.40;;;4.10;99.90;;;4.00;62.88;98723.31;5063873;28;20688;-77
2021/11/27 08:51:23;;;;;;;28.20;19.73;;;4.00;99.90;;;4.04;63.08;98719.16;5063860;28;20209;-75
2021/11/27 08:53:54;;;;;;;27.75;18.17;;;4.00;99.90;;;4.14;62.82;98719.53;5058175;28;20204;-76
2021/11/27 08:56:23;;;;;;;30.02;18.73;;;4.00;99.90;;;4.13;62.76;98718.72;5057494;28;20165;-77
2021/11/27 08:58:52;;;;;;;31.40;19.08;;;4.10;99.90;;;4.33;62.31;98718.59;5057562;28;20183;-77
2021/11/27 09:01:21;;;;;;;24.00;17.30;;;4.20;99.90;;;4.36;62.13;98712.81;5058341;28;20173;-77
2021/11/27 09:03:50;;;;;;;28.60;17.48;;;4.20;99.90;;;4.28;61.99;98718.41;5058729;28;20205;-77
2021/11/27 09:06:19;;;;;;;28.40;19.38;;;4.20;99.90;;;4.25;62.46;98722.38;5058245;28;20656;-76
2021/11/27 09:08:49;;;;;;;22.27;17.50;;;4.20;99.90;;;4.44;61.76;98709.91;5040476;28;20231;-76
2021/11/27 09:11:24;;;;;;;23.67;17.15;;;4.30;99.90;;;4.49;62.10;98707.38;5059199;28;20173;-76
2021/11/27 09:13:53;;;;;;;33.65;19.55;;;4.40;99.90;;;4.73;61.95;98709.28;5060685;28;20617;-78
2021/11/27 09:16:22;;;;;;;27.77;17.50;;;4.50;99.90;;;4.71;61.92;98711.34;5060936;28;20165;-77
2021/11/27 09:19:02;;;;;;;29.77;18.10;;;4.60;99.90;;;4.85;61.25;98716.59;5063429;28;20169;-77
2021/11/27 09:21:32;;;;;;;27.33;20.17;;;4.80;99.90;;;4.73;61.16;98711.97;5063978;28;20215;-77
2021/11/27 09:24:01;;;;;;;32.03;21.33;;;4.70;99.90;;;4.71;61.47;98716.69;5057849;28;20252;-77
2021/11/27 09:26:31;;;;;;;33.85;20.48;;;4.70;99.90;;;4.60;61.18;98720.06;5057621;28;20208;-77
2021/11/27 09:29:00;;;;;;;24.75;17.50;;;4.60;99.90;;;4.63;61.38;98718.84;5040573;28;20181;-76
2021/11/27 09:31:29;;;;;;;27.67;18.90;;;4.50;99.90;;;4.81;61.36;98714.34;5059337;28;20719;-78
2021/11/27 09:33:58;;;;;;;28.52;20.00;;;4.70;99.90;;;4.90;61.17;98724.81;5056812;28;20550;-77
2021/11/27 09:36:27;;;;;;;26.45;18.17;;;4.70;99.90;;;4.87;61.08;98722.56;5055684;28;20204;-78
2021/11/27 09:38:56;;;;;;;30.48;19.63;;;4.80;99.90;;;4.77;60.83;98731.91;5055879;28;20190;-79
2021/11/27 09:41:28;;;;;;;25.92;18.52;;;4.70;99.90;;;4.80;60.71;98736.81;5056196;28;20180;-75
2021/11/27 09:44:03;;;;;;;29.73;18.25;;;4.70;99.90;;;4.51;61.51;98731.25;5056269;28;20216;-76
2021/11/27 09:46:35;;;;;;;31.85;20.73;;;4.60;99.90;;;4.72;60.84;98734.44;5056065;28;20579;-77
2021/11/27 09:49:07;;;;;;;27.20;21.50;;;4.60;99.90;;;4.71;61.24;98732.78;5055436;28;20173;-79
2021/11/27 09:51:39;;;;;;;27.85;20.25;;;4.60;99.90;;;4.58;61.59;98732.88;5038059;28;20271;-78
2021/11/27 09:54:12;;;;;;;25.10;19.10;;;4.60;99.90;;;4.68;61.79;98732.41;5056337;28;20297;-77
2021/11/27 09:56:41;;;;;;;31.50;19.52;;;4.60;99.90;;;4.73;61.23;98721.84;5056639;28;20387;-76
2021/11/27 09:59:11;;;;;;;26.70;18.60;;;4.60;99.90;;;4.70;61.77;98724.94;5039580;28;20234;-77
2021/11/27 10:01:45;;;;;;;29.23;18.42;;;4.70;99.90;;;4.87;60.66;98723.41;5056010;28;20196;-77
2021/11/27 10:04:17;;;;;;;29.77;18.27;;;4.80;99.90;;;4.88;61.19;98721.53;5057181;28;20228;-78
2021/11/27 10:06:48;;;;;;;26.98;17.20;;;4.80;99.90;;;4.73;61.21;98719.16;5055611;28;20226;-77
2021/11/27 10:09:20;;;;;;;27.40;18.00;;;4.70;99.90;;;4.91;61.18;98721.09;5056245;28;20188;-77
2021/11/27 10:11:50;;;;;;;26.60;18.67;;;4.70;99.90;;;4.93;61.33;98714.50;5040700;28;20224;-78
2021/11/27 10:14:25;;;;;;;24.08;18.40;;;4.80;99.90;;;5.01;60.98;98724.09;5060318;28;20219;-77
2021/11/27 10:17:13;;;;;;;25.55;18.58;;;4.90;99.90;;;4.84;61.34;98715.81;5024403;28;20200;-76
2021/11/27 10:19:53;;;;;;;28.58;18.85;;;4.80;99.90;;;5.03;61.25;98722.03;5036695;28;20209;-76
2021/11/27 10:22:28;;;;;;;26.60;19.80;;;4.90;99.90;;;5.16;60.38;98724.59;5036247;28;20223;-78
2021/11/27 10:24:57;;;;;;;27.92;20.40;;;5.00;99.90;;;5.37;60.50;98724.19;5018615;28;20235;-76
2021/11/27 10:27:30;;;;;;;27.02;17.58;;;5.20;99.90;;;5.60;59.63;98727.06;5036806;28;20177;-77
2021/11/27 10:30:08;;;;;;;24.20;18.08;;;5.40;99.90;;;5.55;59.39;98729.56;5036093;28;20174;-77
2021/11/27 10:32:40;;;;;;;28.73;20.92;;;5.40;99.90;;;5.57;59.34;98735.53;5036307;28;20284;-78
2021/11/27 10:35:13;;;;;;;29.25;20.45;;;5.40;99.90;;;5.47;59.67;98727.16;5040723;28;20185;-77
2021/11/27 10:37:46;;;;;;;23.60;16.95;;;5.40;99.90;;;5.56;58.93;98731.22;5037910;28;20184;-77
2021/11/27 10:40:19;;;;;;;26.58;18.60;;;5.40;99.90;;;5.52;59.11;98727.31;5020357;28;20216;-77